sensor_id;sensor_type;location;lat;lon;timestamp;temperature;humidity
5415;DHT22;2730;51.512;7.504;2022-12-18T06:00:18;-8.00;99.90
5415;DHT22;2730;51.512;7.504;2022-12-18T06:02:47;-8.10;99.90
5415;DHT22;2730;51.512;7.504;2022-12-18T06:05:14;-8.10;99.90
5415;DHT22;2730;51.512;7.504;2022-12-18T06:07:41;-8.10;99.90
5415;DHT22;2730;51.512;7.504;2022-12-18T06:10:11;-8.20;99.90
5415;DHT22;2730;51.512;7.504;2022-12-18T06:12:38;-8.10;99.90
5415;DHT22;2730;51.512;7.504;2022-12-18T06:15:05;-8.20;99.90
5415;DHT22;2730;51.512;7.504;2022-12-18T06:17:34;-8.10;99.90
5415;DHT22;2730;51.512;7.504;2022-12-18T06:20:02;-8.10;99.90
5415;DHT22;2730;51.512;7.504;2022-12-18T06:22:30;-8.10;99.90
5415;DHT22;2730;51.512;7.504;2022-12-18T06:24:57;-8.10;99.90
5415;DHT22;2730;51.512;7.504;2022-12-18T06:27:30;-8.10;99.90
5415;DHT22;2730;51.512;7.504;2022-12-18T06:29:58;-8.10;99.90
5415;DHT22;2730;51.512;7.504;2022-12-18T06:32:25;-8.10;99.90
5415;DHT22;2730;51.512;7.504;2022-12-18T06:34:53;-8.10;99.90
5415;DHT22;2730;51.512;7.504;2022-12-18T06:37:20;-8.10;99.90
5415;DHT22;2730;51.512;7.504;2022-12-18T06:39:50;-8.00;99.90
5415;DHT22;2730;51.512;7.504;2022-12-18T06:42:16;-7.70;99.90
5415;DHT22;2730;51.512;7.504;2022-12-18T06:44:43;-7.60;99.90
5415;DHT22;2730;51.512;7.504;2022-12-18T06:47:10;-7.60;99.90
5415;DHT22;2730;51.512;7.504;2022-12-18T06:49:37;-7.70;99.90
5415;DHT22;2730;51.512;7.504;2022-12-18T06:52:05;-7.70;99.90
5415;DHT22;2730;51.512;7.504;2022-12-18T06:54:32;-7.70;99.90
5415;DHT22;2730;51.512;7.504;2022-12-18T06:56:58;-7.50;99.90
5415;DHT22;2730;51.512;7.504;2022-12-18T06:59:25;-7.40;99.90
5415;DHT22;2730;51.512;7.504;2022-12-18T07:01:52;-7.50;99.90
5415;DHT22;2730;51.512;7.504;2022-12-18T07:04:19;-7.30;99.90
5415;DHT22;2730;51.512;7.504;2022-12-18T07:06:45;-7.30;99.90
5415;DHT22;2730;51.512;7.504;2022-12-18T07:09:14;-7.30;99.90
5415;DHT22;2730;51.512;7.504;2022-12-18T07:11:40;-6.90;99.90
5415;DHT22;2730;51.512;7.504;2022-12-18T07:14:07;-6.20;99.90
5415;DHT22;2730;51.512;7.504;2022-12-18T07:16:34;-5.80;99.90
5415;DHT22;2730;51.512;7.504;2022-12-18T07:19:00;-5.70;99.90
5415;DHT22;2730;51.512;7.504;2022-12-18T07:21:27;-5.60;99.90
5415;DHT22;2730;51.512;7.504;2022-12-18T07:23:54;-5.40;99.90
5415;DHT22;2730;51.512;7.504;2022-12-18T07:26:22;-5.30;99.90
5415;DHT22;2730;51.512;7.504;2022-12-18T07:28:49;-5.10;99.90
5415;DHT22;2730;51.512;7.504;2022-12-18T07:31:17;-4.90;99.90
5415;DHT22;2730;51.512;7.504;2022-12-18T07:33:45;-4.60;99.90
5415;DHT22;2730;51.512;7.504;2022-12-18T07:36:12;-4.50;99.90
5415;DHT22;2730;51.512;7.504;2022-12-18T07:38:39;-4.50;99.90
5415;DHT22;2730;51.512;7.504;2022-12-18T07:41:08;-4.10;99.90
5415;DHT22;2730;51.512;7.504;2022-12-18T07:43:37;-4.00;99.90
5415;DHT22;2730;51.512;7.504;2022-12-18T07:46:04;-3.60;99.90
5415;DHT22;2730;51.512;7.504;2022-12-18T07:48:31;-3.50;99.90
5415;DHT22;2730;51.512;7.504;2022-12-18T07:50:58;-3.40;99.90
5415;DHT22;2730;51.512;7.504;2022-12-18T07:53:25;-3.10;99.90
5415;DHT22;2730;51.512;7.504;2022-12-18T07:55:55;-2.90;99.90
5415;DHT22;2730;51.512;7.504;2022-12-18T07:58:22;-2.70;99.90
5415;DHT22;2730;51.512;7.504;2022-12-18T08:00:51;-2.50;99.90
5415;DHT22;2730;51.512;7.504;2022-12-18T08:03:17;-2.60;99.90
5415;DHT22;2730;51.512;7.504;2022-12-18T08:05:44;-2.60;99.90
5415;DHT22;2730;51.512;7.504;2022-12-18T08:08:11;-2.60;99.90
5415;DHT22;2730;51.512;7.504;2022-12-18T08:10:38;-2.40;99.90
5415;DHT22;2730;51.512;7.504;2022-12-18T08:13:05;-2.10;99.90
5415;DHT22;2730;51.512;7.504;2022-12-18T08:15:32;-1.80;99.90
5415;DHT22;2730;51.512;7.504;2022-12-18T08:18:00;-1.60;99.90
5415;DHT22;2730;51.512;7.504;2022-12-18T08:20:27;-1.50;99.90
5415;DHT22;2730;51.512;7.504;2022-12-18T08:22:53;-1.40;99.90
5415;DHT22;2730;51.512;7.504;2022-12-18T08:25:20;-1.30;99.90
5415;DHT22;2730;51.512;7.504;2022-12-18T08:27:47;-1.30;99.90
5415;DHT22;2730;51.512;7.504;2022-12-18T08:30:14;-1.30;99.90
5415;DHT22;2730;51.512;7.504;2022-12-18T08:32:41;-1.30;99.90
5415;DHT22;2730;51.512;7.504;2022-12-18T08:35:09;-1.20;99.90
5415;DHT22;2730;51.512;7.504;2022-12-18T08:37:37;-1.10;99.90
5415;DHT22;2730;51.512;7.504;2022-12-18T08:40:05;-1.10;99.90
5415;DHT22;2730;51.512;7.504;2022-12-18T08:42:34;-1.00;99.90
5415;DHT22;2730;51.512;7.504;2022-12-18T08:45:14;-1.00;99.90
5415;DHT22;2730;51.512;7.504;2022-12-18T08:47:42;-0.90;99.90
5415;DHT22;2730;51.512;7.504;2022-12-18T08:50:10;-0.90;99.90
5415;DHT22;2730;51.512;7.504;2022-12-18T08:52:37;-0.80;99.90
5415;DHT22;2730;51.512;7.504;2022-12-18T08:55:05;-0.80;99.90
5415;DHT22;2730;51.512;7.504;2022-12-18T08:57:32;-0.60;99.90
5415;DHT22;2730;51.512;7.504;2022-12-18T08:59:59;-0.50;99.90
5415;DHT22;2730;51.512;7.504;2022-12-18T09:02:25;-0.50;99.90
5415;DHT22;2730;51.512;7.504;2022-12-18T09:04:52;-0.50;99.90
5415;DHT22;2730;51.512;7.504;2022-12-18T09:07:20;-0.40;99.90
5415;DHT22;2730;51.512;7.504;2022-12-18T09:09:47;-0.30;99.90
5415;DHT22;2730;51.512;7.504;2022-12-18T09:12:14;-0.30;99.90
5415;DHT22;2730;51.512;7.504;2022-12-18T09:14:40;-0.10;99.90
5415;DHT22;2730;51.512;7.504;2022-12-18T09:17:07;0.30;99.90
5415;DHT22;2730;51.512;7.504;2022-12-18T09:19:34;0.80;99.90
5415;DHT22;2730;51.512;7.504;2022-12-18T09:22:01;1.30;99.90
5415;DHT22;2730;51.512;7.504;2022-12-18T09:24:29;2.00;99.90
5415;DHT22;2730;51.512;7.504;2022-12-18T09:26:56;2.40;99.90
5415;DHT22;2730;51.512;7.504;2022-12-18T09:29:23;2.40;99.90
5415;DHT22;2730;51.512;7.504;2022-12-18T09:31:50;2.50;99.90
5415;DHT22;2730;51.512;7.504;2022-12-18T09:34:17;2.50;99.90
5415;DHT22;2730;51.512;7.504;2022-12-18T09:36:46;2.50;99.90
5415;DHT22;2730;51.512;7.504;2022-12-18T09:39:13;2.20;99.90
5415;DHT22;2730;51.512;7.504;2022-12-18T09:41:44;2.20;99.90
5415;DHT22;2730;51.512;7.504;2022-12-18T09:44:25;2.10;99.90
5415;DHT22;2730;51.512;7.504;2022-12-18T09:47:07;2.30;99.90
5415;DHT22;2730;51.512;7.504;2022-12-18T09:49:40;2.60;99.90
5415;DHT22;2730;51.512;7.504;2022-12-18T09:52:13;3.10;99.90
5415;DHT22;2730;51.512;7.504;2022-12-18T09:54:42;3.30;99.40
5415;DHT22;2730;51.512;7.504;2022-12-18T09:57:14;3.30;98.90
5415;DHT22;2730;51.512;7.504;2022-12-18T09:59:43;3.40;98.60
5415;DHT22;2730;51.512;7.504;2022-12-18T10:02:15;3.20;98.30
5415;DHT22;2730;51.512;7.504;2022-12-18T10:04:42;3.10;98.40
5415;DHT22;2730;51.512;7.504;2022-12-18T10:07:13;3.00;97.90
5415;DHT22;2730;51.512;7.504;2022-12-18T10:09:44;3.00;98.10
5415;DHT22;2730;51.512;7.504;2022-12-18T10:12:19;3.00;97.60
5415;DHT22;2730;51.512;7.504;2022-12-18T10:14:51;2.90;98.70
5415;DHT22;2730;51.512;7.504;2022-12-18T10:17:26;2.90;98.00
5415;DHT22;2730;51.512;7.504;2022-12-18T10:19:57;2.90;97.70
5415;DHT22;2730;51.512;7.504;2022-12-18T10:22:34;2.90;98.50
5415;DHT22;2730;51.512;7.504;2022-12-18T10:25:13;2.90;99.10
5415;DHT22;2730;51.512;7.504;2022-12-18T10:27:43;2.90;99.10
5415;DHT22;2730;51.512;7.504;2022-12-18T10:30:15;2.90;98.60
5415;DHT22;2730;51.512;7.504;2022-12-18T10:32:42;2.80;98.20
5415;DHT22;2730;51.512;7.504;2022-12-18T10:35:17;2.70;97.70
5415;DHT22;2730;51.512;7.504;2022-12-18T10:38:03;2.70;98.50
5415;DHT22;2730;51.512;7.504;2022-12-18T10:40:30;2.80;98.30
5415;DHT22;2730;51.512;7.504;2022-12-18T10:43:11;2.60;98.30
5415;DHT22;2730;51.512;7.504;2022-12-18T10:45:38;2.60;98.50
5415;DHT22;2730;51.512;7.504;2022-12-18T10:48:18;2.50;98.90
5415;DHT22;2730;51.512;7.504;2022-12-18T10:50:48;2.60;98.60
5415;DHT22;2730;51.512;7.504;2022-12-18T10:53:20;2.60;98.60
5415;DHT22;2730;51.512;7.504;2022-12-18T10:55:48;2.60;98.50
5415;DHT22;2730;51.512;7.504;2022-12-18T10:58:23;2.70;97.80
5415;DHT22;2730;51.512;7.504;2022-12-18T11:01:06;2.70;96.80
5415;DHT22;2730;51.512;7.504;2022-12-18T11:03:35;2.70;97.60
5415;DHT22;2730;51.512;7.504;2022-12-18T11:06:05;2.60;97.20
5415;DHT22;2730;51.512;7.504;2022-12-18T11:08:32;2.60;97.40
5415;DHT22;2730;51.512;7.504;2022-12-18T11:10:59;2.60;97.10
5415;DHT22;2730;51.512;7.504;2022-12-18T11:13:29;2.60;98.00
5415;DHT22;2730;51.512;7.504;2022-12-18T11:15:57;2.50;99.00
5415;DHT22;2730;51.512;7.504;2022-12-18T11:18:27;2.40;99.90
5415;DHT22;2730;51.512;7.504;2022-12-18T11:20:56;2.30;99.90
5415;DHT22;2730;51.512;7.504;2022-12-18T11:23:24;2.00;99.90
5415;DHT22;2730;51.512;7.504;2022-12-18T11:25:53;2.00;99.90
5415;DHT22;2730;51.512;7.504;2022-12-18T11:28:37;2.00;99.90
5415;DHT22;2730;51.512;7.504;2022-12-18T11:31:17;1.80;99.90
5415;DHT22;2730;51.512;7.504;2022-12-18T11:33:49;1.60;99.90
5415;DHT22;2730;51.512;7.504;2022-12-18T11:36:17;1.40;99.90
5415;DHT22;2730;51.512;7.504;2022-12-18T11:38:45;1.40;99.90
5415;DHT22;2730;51.512;7.504;2022-12-18T11:41:19;1.40;99.90
5415;DHT22;2730;51.512;7.504;2022-12-18T11:43:52;1.40;99.90
5415;DHT22;2730;51.512;7.504;2022-12-18T11:46:28;1.40;99.90
5415;DHT22;2730;51.512;7.504;2022-12-18T11:49:01;1.40;99.90
5415;DHT22;2730;51.512;7.504;2022-12-18T11:51:36;1.50;99.90
5415;DHT22;2730;51.512;7.504;2022-12-18T11:54:10;1.50;99.90
5415;DHT22;2730;51.512;7.504;2022-12-18T11:56:43;1.50;99.90
5415;DHT22;2730;51.512;7.504;2022-12-18T11:59:19;1.50;99.90
5415;DHT22;2730;51.512;7.504;2022-12-18T12:01:51;1.40;99.90
5415;DHT22;2730;51.512;7.504;2022-12-18T12:04:46;1.50;99.90
5415;DHT22;2730;51.512;7.504;2022-12-18T12:07:29;1.60;99.90
5415;DHT22;2730;51.512;7.504;2022-12-18T12:10:05;1.70;99.90
5415;DHT22;2730;51.512;7.504;2022-12-18T12:12:43;1.70;99.90
5415;DHT22;2730;51.512;7.504;2022-12-18T12:15:23;1.70;99.90
5415;DHT22;2730;51.512;7.504;2022-12-18T12:17:58;1.60;99.90
5415;DHT22;2730;51.512;7.504;2022-12-18T12:20:45;1.60;99.90
5415;DHT22;2730;51.512;7.504;2022-12-18T12:23:19;1.50;99.90
5415;DHT22;2730;51.512;7.504;2022-12-18T12:25:54;1.40;99.90
5415;DHT22;2730;51.512;7.504;2022-12-18T12:28:37;1.40;99.90
5415;DHT22;2730;51.512;7.504;2022-12-18T12:31:16;1.20;99.90
5415;DHT22;2730;51.512;7.504;2022-12-18T12:33:51;1.10;99.90
5415;DHT22;2730;51.512;7.504;2022-12-18T12:36:25;1.10;99.90
5415;DHT22;2730;51.512;7.504;2022-12-18T12:38:59;1.10;99.90
5415;DHT22;2730;51.512;7.504;2022-12-18T12:41:31;1.20;99.90
5415;DHT22;2730;51.512;7.504;2022-12-18T12:44:20;1.20;99.90
5415;DHT22;2730;51.512;7.504;2022-12-18T12:46:52;1.00;99.90
5415;DHT22;2730;51.512;7.504;2022-12-18T12:49:24;0.80;99.90
5415;DHT22;2730;51.512;7.504;2022-12-18T12:51:59;0.70;99.90
5415;DHT22;2730;51.512;7.504;2022-12-18T12:54:28;0.80;99.90
5415;DHT22;2730;51.512;7.504;2022-12-18T12:56:59;0.80;99.90
5415;DHT22;2730;51.512;7.504;2022-12-18T12:59:34;0.70;99.90
5415;DHT22;2730;51.512;7.504;2022-12-18T13:02:18;0.70;99.90
5415;DHT22;2730;51.512;7.504;2022-12-18T13:04:49;0.60;99.90
5415;DHT22;2730;51.512;7.504;2022-12-18T13:07:26;0.60;99.90
5415;DHT22;2730;51.512;7.504;2022-12-18T13:10:12;0.50;99.90
5415;DHT22;2730;51.512;7.504;2022-12-18T13:12:51;0.60;99.90
5415;DHT22;2730;51.512;7.504;2022-12-18T13:15:26;0.60;99.90
5415;DHT22;2730;51.512;7.504;2022-12-18T13:18:20;0.50;99.90
5415;DHT22;2730;51.512;7.504;2022-12-18T13:20:49;0.50;99.90
5415;DHT22;2730;51.512;7.504;2022-12-18T13:23:35;0.50;99.90
5415;DHT22;2730;51.512;7.504;2022-12-18T13:26:30;0.50;99.90
5415;DHT22;2730;51.512;7.504;2022-12-18T13:29:02;0.50;99.90
5415;DHT22;2730;51.512;7.504;2022-12-18T13:32:02;0.50;99.90
5415;DHT22;2730;51.512;7.504;2022-12-18T13:34:31;0.50;99.90
5415;DHT22;2730;51.512;7.504;2022-12-18T13:43:21;0.40;99.90
5415;DHT22;2730;51.512;7.504;2022-12-18T13:45:59;0.40;99.90
5415;DHT22;2730;51.512;7.504;2022-12-18T13:48:28;0.50;99.90
5415;DHT22;2730;51.512;7.504;2022-12-18T13:51:00;0.40;99.90
5415;DHT22;2730;51.512;7.504;2022-12-18T13:53:32;0.40;99.90
5415;DHT22;2730;51.512;7.504;2022-12-18T13:56:00;0.40;99.90
5415;DHT22;2730;51.512;7.504;2022-12-18T13:58:27;0.40;99.90
5415;DHT22;2730;51.512;7.504;2022-12-18T14:00:53;0.40;99.90
5415;DHT22;2730;51.512;7.504;2022-12-18T14:03:23;0.40;99.90
5415;DHT22;2730;51.512;7.504;2022-12-18T14:06:02;0.40;99.90
5415;DHT22;2730;51.512;7.504;2022-12-18T14:08:37;0.40;99.90
5415;DHT22;2730;51.512;7.504;2022-12-18T14:11:05;0.40;99.90
5415;DHT22;2730;51.512;7.504;2022-12-18T14:13:36;0.50;99.90
5415;DHT22;2730;51.512;7.504;2022-12-18T14:16:05;0.40;99.90
5415;DHT22;2730;51.512;7.504;2022-12-18T14:18:38;0.40;99.90
5415;DHT22;2730;51.512;7.504;2022-12-18T14:21:20;0.30;99.90
5415;DHT22;2730;51.512;7.504;2022-12-18T14:23:48;0.20;99.90
5415;DHT22;2730;51.512;7.504;2022-12-18T14:26:23;0.20;99.90
5415;DHT22;2730;51.512;7.504;2022-12-18T14:28:52;0.20;99.90
5415;DHT22;2730;51.512;7.504;2022-12-18T14:31:22;0.20;99.90
5415;DHT22;2730;51.512;7.504;2022-12-18T14:33:49;0.20;99.90
5415;DHT22;2730;51.512;7.504;2022-12-18T14:36:19;0.20;99.90
5415;DHT22;2730;51.512;7.504;2022-12-18T14:38:49;0.20;99.90
5415;DHT22;2730;51.512;7.504;2022-12-18T14:41:18;0.20;99.90
5415;DHT22;2730;51.512;7.504;2022-12-18T14:43:46;0.20;99.90
5415;DHT22;2730;51.512;7.504;2022-12-18T14:46:29;0.30;99.90
5415;DHT22;2730;51.512;7.504;2022-12-18T14:48:57;0.30;99.90
5415;DHT22;2730;51.512;7.504;2022-12-18T14:51:26;0.40;99.90
5415;DHT22;2730;51.512;7.504;2022-12-18T14:53:55;0.40;99.90
5415;DHT22;2730;51.512;7.504;2022-12-18T14:56:24;0.40;99.90
5415;DHT22;2730;51.512;7.504;2022-12-18T14:58:53;0.50;99.90
5415;DHT22;2730;51.512;7.504;2022-12-18T15:01:23;0.60;99.90
5415;DHT22;2730;51.512;7.504;2022-12-18T15:03:51;0.60;99.90
5415;DHT22;2730;51.512;7.504;2022-12-18T15:06:27;0.40;99.90
5415;DHT22;2730;51.512;7.504;2022-12-18T15:08:54;0.40;99.90
5415;DHT22;2730;51.512;7.504;2022-12-18T15:11:33;0.30;99.90
5415;DHT22;2730;51.512;7.504;2022-12-18T15:14:32;0.20;99.90
5415;DHT22;2730;51.512;7.504;2022-12-18T15:17:01;0.20;99.90
5415;DHT22;2730;51.512;7.504;2022-12-18T15:19:37;0.20;99.90
5415;DHT22;2730;51.512;7.504;2022-12-18T15:22:16;0.20;99.90
5415;DHT22;2730;51.512;7.504;2022-12-18T15:24:44;0.20;99.90
5415;DHT22;2730;51.512;7.504;2022-12-18T15:27:21;0.20;99.90
5415;DHT22;2730;51.512;7.504;2022-12-18T15:30:00;0.20;99.90
5415;DHT22;2730;51.512;7.504;2022-12-18T15:32:26;0.30;99.90
5415;DHT22;2730;51.512;7.504;2022-12-18T15:35:09;0.20;99.90
5415;DHT22;2730;51.512;7.504;2022-12-18T15:37:39;0.30;99.90
5415;DHT22;2730;51.512;7.504;2022-12-18T15:40:07;0.30;99.90
5415;DHT22;2730;51.512;7.504;2022-12-18T15:42:34;0.40;99.90
5415;DHT22;2730;51.512;7.504;2022-12-18T15:45:19;0.60;99.90
5415;DHT22;2730;51.512;7.504;2022-12-18T15:47:45;0.70;99.90
5415;DHT22;2730;51.512;7.504;2022-12-18T15:50:12;0.80;99.90
5415;DHT22;2730;51.512;7.504;2022-12-18T15:52:42;0.80;99.90
5415;DHT22;2730;51.512;7.504;2022-12-18T15:55:11;0.80;99.90
5415;DHT22;2730;51.512;7.504;2022-12-18T15:57:55;0.80;99.90
5415;DHT22;2730;51.512;7.504;2022-12-18T16:00:21;0.90;99.90
5415;DHT22;2730;51.512;7.504;2022-12-18T16:02:48;1.00;99.90
5415;DHT22;2730;51.512;7.504;2022-12-18T16:05:17;1.30;99.90
5415;DHT22;2730;51.512;7.504;2022-12-18T16:07:46;1.30;99.90
5415;DHT22;2730;51.512;7.504;2022-12-18T16:10:13;1.30;99.90
5415;DHT22;2730;51.512;7.504;2022-12-18T16:12:40;1.40;99.90
5415;DHT22;2730;51.512;7.504;2022-12-18T16:15:11;1.40;99.90
5415;DHT22;2730;51.512;7.504;2022-12-18T16:17:39;1.40;99.90
5415;DHT22;2730;51.512;7.504;2022-12-18T16:20:07;1.40;99.90
5415;DHT22;2730;51.512;7.504;2022-12-18T16:22:38;1.30;99.90
5415;DHT22;2730;51.512;7.504;2022-12-18T16:25:15;1.40;99.90
5415;DHT22;2730;51.512;7.504;2022-12-18T16:27:42;1.40;99.90
5415;DHT22;2730;51.512;7.504;2022-12-18T16:30:13;1.40;99.90
5415;DHT22;2730;51.512;7.504;2022-12-18T16:32:40;1.40;99.90
5415;DHT22;2730;51.512;7.504;2022-12-18T16:35:09;1.40;99.90
5415;DHT22;2730;51.512;7.504;2022-12-18T16:37:36;1.40;99.90
5415;DHT22;2730;51.512;7.504;2022-12-18T16:40:04;1.50;99.90
5415;DHT22;2730;51.512;7.504;2022-12-18T16:42:32;1.50;99.90
5415;DHT22;2730;51.512;7.504;2022-12-18T16:44:59;1.60;99.90
5415;DHT22;2730;51.512;7.504;2022-12-18T16:47:25;1.60;99.90
5415;DHT22;2730;51.512;7.504;2022-12-18T16:49:52;1.50;99.90
5415;DHT22;2730;51.512;7.504;2022-12-18T16:52:21;1.60;99.90
5415;DHT22;2730;51.512;7.504;2022-12-18T16:54:48;1.60;99.90
5415;DHT22;2730;51.512;7.504;2022-12-18T16:57:16;1.70;99.90
5415;DHT22;2730;51.512;7.504;2022-12-18T16:59:44;1.70;99.90
5415;DHT22;2730;51.512;7.504;2022-12-18T17:02:12;1.70;99.90
5415;DHT22;2730;51.512;7.504;2022-12-18T17:04:40;1.70;99.90
5415;DHT22;2730;51.512;7.504;2022-12-18T17:07:07;1.70;99.90
5415;DHT22;2730;51.512;7.504;2022-12-18T17:09:34;1.80;99.90
5415;DHT22;2730;51.512;7.504;2022-12-18T17:12:01;1.90;99.90
5415;DHT22;2730;51.512;7.504;2022-12-18T17:14:28;1.90;99.90
5415;DHT22;2730;51.512;7.504;2022-12-18T17:16:56;1.80;99.90
5415;DHT22;2730;51.512;7.504;2022-12-18T17:19:25;1.80;99.90
5415;DHT22;2730;51.512;7.504;2022-12-18T17:21:52;1.70;99.90
5415;DHT22;2730;51.512;7.504;2022-12-18T17:24:20;1.70;99.90
5415;DHT22;2730;51.512;7.504;2022-12-18T17:26:47;1.80;99.90
5415;DHT22;2730;51.512;7.504;2022-12-18T17:29:15;1.70;99.90
5415;DHT22;2730;51.512;7.504;2022-12-18T17:31:42;1.60;99.90
5415;DHT22;2730;51.512;7.504;2022-12-18T17:34:11;1.60;99.90
5415;DHT22;2730;51.512;7.504;2022-12-18T17:36:38;1.50;99.90
5415;DHT22;2730;51.512;7.504;2022-12-18T17:39:06;1.50;99.90
5415;DHT22;2730;51.512;7.504;2022-12-18T17:41:33;1.50;99.90
5415;DHT22;2730;51.512;7.504;2022-12-18T17:44:02;1.60;99.90
5415;DHT22;2730;51.512;7.504;2022-12-18T17:46:31;1.50;99.90
5415;DHT22;2730;51.512;7.504;2022-12-18T17:48:59;1.50;99.90
5415;DHT22;2730;51.512;7.504;2022-12-18T17:51:29;1.50;99.90
5415;DHT22;2730;51.512;7.504;2022-12-18T17:53:56;1.50;99.90
5415;DHT22;2730;51.512;7.504;2022-12-18T17:56:23;1.50;99.90
5415;DHT22;2730;51.512;7.504;2022-12-18T17:58:50;1.40;99.90
5415;DHT22;2730;51.512;7.504;2022-12-18T18:01:20;1.50;99.90
5415;DHT22;2730;51.512;7.504;2022-12-18T18:03:47;1.50;99.90
5415;DHT22;2730;51.512;7.504;2022-12-18T18:06:14;1.50;99.90
5415;DHT22;2730;51.512;7.504;2022-12-18T18:08:42;1.50;99.90
5415;DHT22;2730;51.512;7.504;2022-12-18T18:11:12;1.50;99.90
5415;DHT22;2730;51.512;7.504;2022-12-18T18:13:56;1.50;99.90
5415;DHT22;2730;51.512;7.504;2022-12-18T18:16:26;1.50;99.90
5415;DHT22;2730;51.512;7.504;2022-12-18T18:18:56;1.50;99.90
5415;DHT22;2730;51.512;7.504;2022-12-18T18:21:23;1.50;99.90
5415;DHT22;2730;51.512;7.504;2022-12-18T18:23:52;1.40;99.90
5415;DHT22;2730;51.512;7.504;2022-12-18T18:26:18;1.40;99.90
5415;DHT22;2730;51.512;7.504;2022-12-18T18:28:46;1.50;99.90
5415;DHT22;2730;51.512;7.504;2022-12-18T18:31:13;1.50;99.90
5415;DHT22;2730;51.512;7.504;2022-12-18T18:36:11;1.40;99.90
5415;DHT22;2730;51.512;7.504;2022-12-18T18:38:38;1.40;99.90
5415;DHT22;2730;51.512;7.504;2022-12-18T18:41:07;1.40;99.90
5415;DHT22;2730;51.512;7.504;2022-12-18T18:43:33;1.30;99.90
5415;DHT22;2730;51.512;7.504;2022-12-18T18:46:03;1.30;99.90
5415;DHT22;2730;51.512;7.504;2022-12-18T18:48:32;1.30;99.90
5415;DHT22;2730;51.512;7.504;2022-12-18T18:51:02;1.30;99.90
5415;DHT22;2730;51.512;7.504;2022-12-18T18:53:29;1.30;99.90
5415;DHT22;2730;51.512;7.504;2022-12-18T18:55:59;1.30;99.90
5415;DHT22;2730;51.512;7.504;2022-12-18T18:58:28;1.30;99.90
5415;DHT22;2730;51.512;7.504;2022-12-18T19:00:56;1.30;99.90
5415;DHT22;2730;51.512;7.504;2022-12-18T19:03:23;1.30;99.90
5415;DHT22;2730;51.512;7.504;2022-12-18T19:05:52;1.30;99.90
5415;DHT22;2730;51.512;7.504;2022-12-18T19:08:20;1.20;99.90
5415;DHT22;2730;51.512;7.504;2022-12-18T19:10:50;1.20;99.90
5415;DHT22;2730;51.512;7.504;2022-12-18T19:13:18;1.20;99.90
5415;DHT22;2730;51.512;7.504;2022-12-18T19:15:52;1.20;99.90
5415;DHT22;2730;51.512;7.504;2022-12-18T19:18:20;1.20;99.90
5415;DHT22;2730;51.512;7.504;2022-12-18T19:20:55;1.20;99.90
5415;DHT22;2730;51.512;7.504;2022-12-18T19:23:22;1.20;99.90
5415;DHT22;2730;51.512;7.504;2022-12-18T19:25:49;1.20;99.90
5415;DHT22;2730;51.512;7.504;2022-12-18T19:28:17;1.20;99.90
5415;DHT22;2730;51.512;7.504;2022-12-18T19:30:44;1.10;99.90
5415;DHT22;2730;51.512;7.504;2022-12-18T19:33:12;1.20;99.90
5415;DHT22;2730;51.512;7.504;2022-12-18T19:35:39;1.10;99.90
5415;DHT22;2730;51.512;7.504;2022-12-18T19:38:05;1.10;99.90
5415;DHT22;2730;51.512;7.504;2022-12-18T19:40:32;1.10;99.90
5415;DHT22;2730;51.512;7.504;2022-12-18T19:42:59;1.10;99.90
5415;DHT22;2730;51.512;7.504;2022-12-18T19:45:26;1.00;99.90
5415;DHT22;2730;51.512;7.504;2022-12-18T19:47:52;1.00;99.90
5415;DHT22;2730;51.512;7.504;2022-12-18T19:50:21;0.90;99.90
5415;DHT22;2730;51.512;7.504;2022-12-18T19:52:48;0.90;99.90
5415;DHT22;2730;51.512;7.504;2022-12-18T19:55:14;1.00;99.90
5415;DHT22;2730;51.512;7.504;2022-12-18T19:57:41;1.00;99.90
5415;DHT22;2730;51.512;7.504;2022-12-18T20:00:10;1.00;99.90
5415;DHT22;2730;51.512;7.504;2022-12-18T20:02:37;1.10;99.90
5415;DHT22;2730;51.512;7.504;2022-12-18T20:05:06;1.00;99.90
5415;DHT22;2730;51.512;7.504;2022-12-18T20:07:34;1.10;99.90
5415;DHT22;2730;51.512;7.504;2022-12-18T20:10:02;1.10;99.90
5415;DHT22;2730;51.512;7.504;2022-12-18T20:12:29;1.10;99.90
5415;DHT22;2730;51.512;7.504;2022-12-18T20:14:56;1.10;99.90
5415;DHT22;2730;51.512;7.504;2022-12-18T20:17:23;1.10;99.90
5415;DHT22;2730;51.512;7.504;2022-12-18T20:19:50;1.10;99.90
5415;DHT22;2730;51.512;7.504;2022-12-18T20:22:17;1.10;99.90
5415;DHT22;2730;51.512;7.504;2022-12-18T20:24:45;1.20;99.90
5415;DHT22;2730;51.512;7.504;2022-12-18T20:27:12;1.20;99.90
5415;DHT22;2730;51.512;7.504;2022-12-18T20:29:39;1.20;99.90
5415;DHT22;2730;51.512;7.504;2022-12-18T20:32:07;1.20;99.90
5415;DHT22;2730;51.512;7.504;2022-12-18T20:34:35;1.20;99.90
5415;DHT22;2730;51.512;7.504;2022-12-18T20:37:01;1.20;99.90
5415;DHT22;2730;51.512;7.504;2022-12-18T20:39:28;1.10;99.90
5415;DHT22;2730;51.512;7.504;2022-12-18T20:41:56;1.10;99.90
5415;DHT22;2730;51.512;7.504;2022-12-18T20:44:23;1.10;99.90
5415;DHT22;2730;51.512;7.504;2022-12-18T20:46:52;1.10;99.90
5415;DHT22;2730;51.512;7.504;2022-12-18T20:49:19;1.30;99.90
5415;DHT22;2730;51.512;7.504;2022-12-18T20:51:49;1.30;99.90
5415;DHT22;2730;51.512;7.504;2022-12-18T20:54:17;1.40;99.90
5415;DHT22;2730;51.512;7.504;2022-12-18T20:56:44;1.40;99.90
5415;DHT22;2730;51.512;7.504;2022-12-18T20:59:12;1.40;99.90
5415;DHT22;2730;51.512;7.504;2022-12-18T21:01:39;1.60;99.90
5415;DHT22;2730;51.512;7.504;2022-12-18T21:04:07;1.50;99.90
5415;DHT22;2730;51.512;7.504;2022-12-18T21:06:33;1.50;99.90
5415;DHT22;2730;51.512;7.504;2022-12-18T21:09:01;1.60;99.90
5415;DHT22;2730;51.512;7.504;2022-12-18T21:11:29;1.60;99.90
5415;DHT22;2730;51.512;7.504;2022-12-18T21:14:17;1.50;99.90
5415;DHT22;2730;51.512;7.504;2022-12-18T21:16:45;1.50;99.90
5415;DHT22;2730;51.512;7.504;2022-12-18T21:19:13;1.60;99.90
5415;DHT22;2730;51.512;7.504;2022-12-18T21:21:40;1.60;99.90
5415;DHT22;2730;51.512;7.504;2022-12-18T21:24:07;1.50;99.90
5415;DHT22;2730;51.512;7.504;2022-12-18T21:26:36;1.50;99.90
5415;DHT22;2730;51.512;7.504;2022-12-18T21:29:06;1.60;99.90
5415;DHT22;2730;51.512;7.504;2022-12-18T21:31:35;1.60;99.90
5415;DHT22;2730;51.512;7.504;2022-12-18T21:34:02;1.50;99.90
5415;DHT22;2730;51.512;7.504;2022-12-18T21:36:31;1.50;99.90
5415;DHT22;2730;51.512;7.504;2022-12-18T21:38:58;1.50;99.90
5415;DHT22;2730;51.512;7.504;2022-12-18T21:41:26;1.50;99.90
5415;DHT22;2730;51.512;7.504;2022-12-18T21:44:12;1.50;99.90
5415;DHT22;2730;51.512;7.504;2022-12-18T21:46:42;1.40;99.90
5415;DHT22;2730;51.512;7.504;2022-12-18T21:49:11;1.40;99.90
5415;DHT22;2730;51.512;7.504;2022-12-18T21:51:39;1.40;99.90
5415;DHT22;2730;51.512;7.504;2022-12-18T21:54:06;1.40;99.90
5415;DHT22;2730;51.512;7.504;2022-12-18T21:56:44;1.40;99.90
5415;DHT22;2730;51.512;7.504;2022-12-18T21:59:11;1.40;99.90
5415;DHT22;2730;51.512;7.504;2022-12-18T22:01:40;1.40;99.90
5415;DHT22;2730;51.512;7.504;2022-12-18T22:04:07;1.50;99.90
5415;DHT22;2730;51.512;7.504;2022-12-18T22:06:34;1.40;99.90
5415;DHT22;2730;51.512;7.504;2022-12-18T22:09:01;1.50;99.90
5415;DHT22;2730;51.512;7.504;2022-12-18T22:11:29;1.50;99.90
5415;DHT22;2730;51.512;7.504;2022-12-18T22:13:56;1.60;99.90
5415;DHT22;2730;51.512;7.504;2022-12-18T22:16:22;1.60;99.90
5415;DHT22;2730;51.512;7.504;2022-12-18T22:18:50;1.60;99.90
5415;DHT22;2730;51.512;7.504;2022-12-18T22:21:23;1.70;99.90
5415;DHT22;2730;51.512;7.504;2022-12-18T22:23:54;1.70;99.90
5415;DHT22;2730;51.512;7.504;2022-12-18T22:26:22;1.80;99.90
5415;DHT22;2730;51.512;7.504;2022-12-18T22:28:49;1.80;99.90
5415;DHT22;2730;51.512;7.504;2022-12-18T22:31:40;1.70;99.90
5415;DHT22;2730;51.512;7.504;2022-12-18T22:34:08;1.70;99.90
5415;DHT22;2730;51.512;7.504;2022-12-18T22:36:36;1.80;99.90
5415;DHT22;2730;51.512;7.504;2022-12-18T22:39:06;1.80;99.90
5415;DHT22;2730;51.512;7.504;2022-12-18T22:41:33;1.70;99.90